Time;durP1;ratioP1;P1;durP2;ratioP2;P2;SDS_P1;SDS_P2;PMS_P1;PMS_P2;Temp;Humidity;BMP_temperature;BMP_pressure;BME280_temperature;BME280_humidity;BME280_pressure;Samples;Min_cycle;Max_cycle;Signal;HPM_P1;HPM_P2
2021/09/13 00:01:15;;;;;;;72.80;43.00;;;;;;;12.90;75.63;99329.49;115438;1205;22367;-64
2021/09/13 00:03:48;;;;;;;83.40;44.00;;;;;;;12.88;75.46;99331.52;115379;1201;138430;-63
2021/09/13 00:06:17;;;;;;;78.40;43.80;;;;;;;12.86;75.65;99330.54;115493;1205;22247;-63
2021/09/13 00:09:05;;;;;;;70.70;42.20;;;;;;;12.84;76.00;99327.59;115517;1205;22371;-63
2021/09/13 00:11:34;;;;;;;68.50;42.80;;;;;;;12.83;75.99;99325.80;115380;1201;138378;-63
2021/09/13 00:14:22;;;;;;;69.60;42.40;;;;;;;12.82;75.78;99325.04;115412;1205;22343;-63
2021/09/13 00:16:50;;;;;;;79.30;42.30;;;;;;;12.80;76.00;99324.06;115367;1201;139610;-63
2021/09/13 00:19:39;;;;;;;73.80;41.10;;;;;;;12.79;75.98;99325.75;115428;1205;23011;-63
2021/09/13 00:22:08;;;;;;;79.10;42.00;;;;;;;12.76;75.86;99323.90;115353;1201;139352;-63
2021/09/13 00:24:57;;;;;;;72.70;42.20;;;;;;;12.73;75.89;99323.08;115519;1206;22130;-64
2021/09/13 00:27:29;;;;;;;67.10;42.40;;;;;;;12.71;75.85;99320.77;115378;1200;138350;-65
2021/09/13 00:30:03;;;;;;;74.80;43.40;;;;;;;12.69;75.89;99320.81;115461;1205;22786;-63
2021/09/13 00:32:31;;;;;;;66.90;40.10;;;;;;;12.67;75.81;99318.35;115517;1206;22297;-63
2021/09/13 00:35:04;;;;;;;66.70;43.20;;;;;;;12.61;76.18;99313.93;115313;1202;139043;-63
2021/09/13 00:37:33;;;;;;;63.90;39.80;;;;;;;12.61;75.97;99315.23;115505;1205;23295;-63
2021/09/13 00:40:11;;;;;;;67.40;41.50;;;;;;;12.56;76.17;99318.56;115379;1201;139497;-63
2021/09/13 00:42:41;;;;;;;64.80;40.20;;;;;;;12.53;76.31;99315.81;115452;1205;22378;-63
2021/09/13 00:45:11;;;;;;;66.40;39.60;;;;;;;12.51;76.18;99315.97;115441;1205;22311;-62
2021/09/13 00:47:39;;;;;;;63.20;39.80;;;;;;;12.48;76.17;99317.23;115339;1201;139700;-64
2021/09/13 00:50:07;;;;;;;64.20;39.30;;;;;;;12.45;76.02;99316.52;115446;1206;22237;-63
2021/09/13 00:52:36;;;;;;;65.20;38.90;;;;;;;12.40;75.86;99316.97;115366;1201;138090;-63
2021/09/13 00:55:05;;;;;;;71.70;40.70;;;;;;;12.35;75.99;99313.96;115504;1205;22362;-63
2021/09/13 00:57:38;;;;;;;68.20;41.10;;;;;;;12.33;76.09;99311.56;111047;1201;139365;-62
2021/09/13 01:00:07;;;;;;;65.50;38.70;;;;;;;12.30;76.27;99311.44;111268;1205;22429;-62
2021/09/13 01:02:41;;;;;;;62.30;38.80;;;;;;;12.28;76.46;99312.86;111336;1204;22530;-62
2021/09/13 01:05:10;;;;;;;66.70;38.50;;;;;;;12.26;76.42;99308.83;111236;1202;139047;-62
2021/09/13 01:07:58;;;;;;;59.30;38.50;;;;;;;12.24;76.32;99310.76;111430;1205;24083;-62
2021/09/13 01:10:27;;;;;;;57.40;37.10;;;;;;;12.22;76.40;99311.80;111438;1200;140398;-62
2021/09/13 01:12:55;;;;;;;59.80;36.70;;;;;;;12.20;76.48;99311.67;115465;1205;23385;-63
2021/09/13 01:15:26;;;;;;;58.10;37.20;;;;;;;12.17;76.43;99307.80;115454;1204;22386;-63
2021/09/13 01:18:14;;;;;;;64.50;36.60;;;;;;;12.14;76.43;99312.48;115258;1205;22344;-63
2021/09/13 01:20:42;;;;;;;58.20;35.30;;;;;;;12.13;76.38;99314.08;115218;1205;22361;-63
2021/09/13 01:23:27;;;;;;;62.50;37.10;;;;;;;12.10;76.56;99311.03;115025;1201;138800;-63
2021/09/13 01:26:07;;;;;;;56.90;34.70;;;;;;;12.08;76.44;99311.58;115139;1205;22419;-63
2021/09/13 01:28:36;;;;;;;56.80;37.00;;;;;;;12.05;76.33;99312.34;115056;1205;138269;-62
2021/09/13 01:31:06;;;;;;;58.90;35.80;;;;;;;12.02;76.64;99304.09;115108;1205;23469;-65
2021/09/13 01:33:39;;;;;;;55.70;34.30;;;;;;;12.01;76.54;99307.30;115074;1206;24049;-63
2021/09/13 01:36:16;;;;;;;55.90;35.20;;;;;;;12.03;76.53;99310.09;114901;1201;138273;-64
2021/09/13 01:38:45;;;;;;;53.30;34.30;;;;;;;12.02;76.40;99311.67;115162;1212;24364;-64
2021/09/13 01:42:37;;;;;;;61.00;37.30;;;;;;;12.02;76.66;99311.40;109706;1218;564715;-63
2021/09/13 01:45:07;;;;;;;54.50;34.90;;;;;;;11.99;76.55;99311.61;110758;1209;22474;-63
2021/09/13 01:47:40;;;;;;;57.30;36.20;;;;;;;11.97;76.52;99311.30;114524;1206;137723;-64
2021/09/13 01:50:09;;;;;;;53.10;36.30;;;;;;;11.93;76.46;99312.83;114979;1213;22420;-64
2021/09/13 01:52:37;;;;;;;67.50;37.90;;;;;;;11.90;76.57;99313.85;115069;1207;137573;-65
2021/09/13 01:55:06;;;;;;;57.70;35.40;;;;;;;11.86;76.59;99316.07;115091;1210;22421;-61
2021/09/13 01:57:39;;;;;;;58.60;35.10;;;;;;;11.83;76.84;99318.42;115064;1211;22467;-55
2021/09/13 02:00:08;;;;;;;57.00;34.90;;;;;;;11.81;77.01;99316.90;114970;1207;137834;-56
2021/09/13 02:02:45;;;;;;;58.80;34.40;;;;;;;11.78;76.88;99312.59;115145;1213;23096;-56
2021/09/13 02:05:19;;;;;;;67.00;35.00;;;;;;;11.77;76.98;99311.11;115010;1208;138672;-56
2021/09/13 02:07:53;;;;;;;58.80;35.60;;;;;;;11.74;77.05;99310.36;114974;1213;23391;-56
2021/09/13 02:10:21;;;;;;;59.20;34.70;;;;;;;11.73;76.95;99310.41;114930;1207;137979;-56
2021/09/13 02:12:49;;;;;;;63.70;34.20;;;;;;;11.72;77.05;99308.60;115104;1212;22310;-56
2021/09/13 02:15:17;;;;;;;67.40;35.90;;;;;;;11.71;76.99;99310.67;115101;1211;23312;-56
2021/09/13 02:17:45;;;;;;;60.20;35.60;;;;;;;11.71;77.16;99311.05;114911;1208;139086;-56
2021/09/13 02:20:16;;;;;;;59.50;32.60;;;;;;;11.73;77.18;99312.48;115163;1210;22381;-56
2021/09/13 02:22:44;;;;;;;54.30;34.50;;;;;;;11.73;77.05;99310.20;114966;1207;137893;-56
2021/09/13 02:25:32;;;;;;;56.50;34.90;;;;;;;11.74;77.21;99309.04;115150;1210;22318;-56
2021/09/13 02:28:00;;;;;;;69.90;34.20;;;;;;;11.74;76.97;99307.36;115029;1210;22241;-56
2021/09/13 02:30:28;;;;;;;59.00;34.00;;;;;;;11.73;77.03;99310.73;114842;1207;137943;-56
2021/09/13 02:32:57;;;;;;;60.30;34.50;;;;;;;11.72;77.00;99313.13;115138;1210;22776;-56
2021/09/13 02:35:26;;;;;;;52.10;32.00;;;;;;;11.69;77.10;99311.21;114956;1207;137636;-63
2021/09/13 02:38:14;;;;;;;52.60;32.30;;;;;;;11.68;77.02;99310.69;115027;1212;22338;-64
2021/09/13 02:40:43;;;;;;;60.90;33.80;;;;;;;11.65;76.95;99315.55;114916;1207;138546;-64
2021/09/13 02:43:11;;;;;;;58.70;33.90;;;;;;;11.64;76.98;99316.02;115005;1216;22358;-64
2021/09/13 02:45:39;;;;;;;62.80;33.60;;;;;;;11.60;76.98;99312.63;114971;1212;23296;-64
2021/09/13 02:48:08;;;;;;;60.20;32.10;;;;;;;11.57;76.93;99312.28;114925;1209;138380;-64
2021/09/13 02:50:36;;;;;;;56.10;31.10;;;;;;;11.54;76.93;99316.10;114976;1211;22314;-64
2021/09/13 02:53:04;;;;;;;51.80;29.90;;;;;;;11.51;77.05;99312.67;114959;1207;138603;-64
2021/09/13 02:55:34;;;;;;;52.50;30.10;;;;;;;11.49;77.02;99310.70;115006;1213;22787;-64
2021/09/13 02:58:02;;;;;;;56.40;31.20;;;;;;;11.47;77.14;99312.44;114980;1212;22327;-64
2021/09/13 03:00:31;;;;;;;50.70;31.70;;;;;;;11.46;77.14;99310.08;114924;1207;138260;-64
2021/09/13 03:03:03;;;;;;;45.20;28.90;;;;;;;11.43;77.20;99309.86;115042;1212;22338;-65
2021/09/13 03:05:32;;;;;;;52.60;29.60;;;;;;;11.43;77.10;99310.77;114915;1209;138182;-64
2021/09/13 03:08:04;;;;;;;46.00;28.30;;;;;;;11.40;77.11;99312.19;115246;1216;22158;-64
2021/09/13 03:10:32;;;;;;;59.10;28.30;;;;;;;11.39;76.95;99310.79;115127;1206;137960;-64
2021/09/13 03:13:01;;;;;;;54.70;29.80;;;;;;;11.38;77.12;99313.57;115223;1210;22400;-64
2021/09/13 03:15:49;;;;;;;;;;;;;;;11.37;77.00;99312.69;115244;1216;23500;-64
2021/09/13 03:18:17;;;;;;;48.90;28.50;;;;;;;11.35;77.11;99315.30;115049;1206;125524;-64
2021/09/13 03:20:45;;;;;;;49.60;28.40;;;;;;;11.34;77.41;99312.34;115118;1212;23174;-64
2021/09/13 03:23:13;;;;;;;51.90;29.80;;;;;;;11.35;77.40;99312.52;115099;1205;138053;-64
2021/09/13 03:25:42;;;;;;;50.00;30.00;;;;;;;11.37;77.45;99312.68;115213;1209;22324;-62
2021/09/13 03:28:10;;;;;;;64.50;30.20;;;;;;;11.38;77.54;99313.52;115180;1216;22308;-64
2021/09/13 03:30:38;;;;;;;58.70;29.70;;;;;;;11.40;77.62;99311.44;115029;1206;137755;-63
2021/09/13 03:33:07;;;;;;;46.60;26.40;;;;;;;11.37;77.42;99308.05;115204;1209;22369;-63
2021/09/13 03:35:35;;;;;;;60.60;30.40;;;;;;;11.39;77.25;99311.83;114997;1206;138943;-62
2021/09/13 03:38:04;;;;;;;51.50;28.90;;;;;;;11.39;77.44;99311.59;115136;1209;23126;-63
2021/09/13 03:40:36;;;;;;;50.60;28.10;;;;;;;11.39;77.36;99313.08;115143;1209;138240;-63
2021/09/13 03:43:04;;;;;;;44.10;28.20;;;;;;;11.39;77.33;99308.77;114896;1217;22354;-62
2021/09/13 03:45:32;;;;;;;57.40;28.60;;;;;;;11.39;77.35;99310.23;115003;1212;22394;-62
2021/09/13 03:48:11;;;;;;;53.90;29.10;;;;;;;11.39;77.32;99312.80;114876;1207;140747;-63
2021/09/13 03:50:42;;;;;;;56.40;26.80;;;;;;;11.39;77.26;99315.48;114998;1212;22370;-63
2021/09/13 03:53:11;;;;;;;67.60;27.00;;;;;;;11.40;77.36;99312.70;114883;1207;139004;-63
2021/09/13 03:55:53;;;;;;;78.70;31.20;;;;;;;11.42;77.61;99310.66;115039;1210;22350;-63
2021/09/13 03:58:21;;;;;;;97.30;31.20;;;;;;;11.45;77.97;99312.05;114914;1207;137999;-62
2021/09/13 04:00:50;;;;;;;63.10;26.60;;;;;;;11.48;77.91;99310.20;115060;1217;22987;-63
2021/09/13 04:03:30;;;;;;;64.10;29.60;;;;;;;11.52;78.04;99313.00;115051;1212;22268;-63
2021/09/13 04:05:59;;;;;;;57.70;29.00;;;;;;;11.56;78.06;99311.41;114877;1208;139310;-63
2021/09/13 04:11:55;;;;;;;82.20;29.00;;;;;;;11.65;78.41;99309.33;114867;1207;138386;-63
2021/09/13 04:14:45;;;;;;;54.40;27.60;;;;;;;11.70;78.43;99309.04;114872;1210;22269;-63
2021/09/13 04:17:51;;;;;;;56.30;28.50;;;;;;;11.76;78.40;99315.40;114943;1207;138459;-63
2021/09/13 04:20:31;;;;;;;62.00;29.40;;;;;;;11.82;78.61;99318.93;115108;1209;23118;-63
2021/09/13 04:23:29;;;;;;;48.60;27.70;;;;;;;11.91;78.67;99321.98;115130;1205;139059;-64
2021/09/13 04:26:16;;;;;;;48.70;29.00;;;;;;;12.00;78.82;99319.31;115250;1209;23085;-64
2021/09/13 04:29:04;;;;;;;54.10;31.20;;;;;;;12.10;79.15;99320.74;114995;1204;139039;-63
2021/09/13 04:32:10;;;;;;;51.80;28.20;;;;;;;12.28;79.58;99323.64;115294;1209;22342;-63
2021/09/13 04:35:04;;;;;;;53.60;28.40;;;;;;;12.58;79.50;99321.96;115037;1206;139559;-63
2021/09/13 04:37:43;;;;;;;59.30;30.20;;;;;;;12.92;79.00;99319.81;115170;1210;22255;-63
2021/09/13 04:40:40;;;;;;;53.10;29.30;;;;;;;13.29;78.30;99318.55;115097;1203;138675;-63
2021/09/13 04:43:09;;;;;;;51.80;30.10;;;;;;;13.55;77.82;99318.52;115271;1208;22362;-63
2021/09/13 04:45:59;;;;;;;52.50;29.40;;;;;;;13.90;77.21;99318.02;115250;1213;22376;-63
2021/09/13 04:48:53;;;;;;;56.10;28.10;;;;;;;14.25;76.35;99317.32;115057;1208;138170;-63
2021/09/13 04:51:36;;;;;;;48.40;29.10;;;;;;;14.56;75.47;99317.89;115226;1208;22224;-63
2021/09/13 04:54:14;;;;;;;50.00;30.20;;;;;;;14.78;74.66;99315.86;115139;1203;138831;-63
2021/09/13 04:56:43;;;;;;;48.60;27.80;;;;;;;14.95;74.37;99315.56;115295;1207;22321;-62
2021/09/13 04:59:11;;;;;;;50.30;27.40;;;;;;;15.09;73.81;99311.61;115137;1203;137912;-63
2021/09/13 05:01:39;;;;;;;73.30;29.10;;;;;;;15.21;73.31;99307.23;115270;1207;22403;-63
2021/09/13 05:04:09;;;;;;;54.20;29.40;;;;;;;15.34;72.93;99302.14;115251;1209;23314;-62
2021/09/13 05:06:37;;;;;;;50.40;28.00;;;;;;;15.45;72.54;99301.17;115092;1203;137822;-63
2021/09/13 05:09:06;;;;;;;58.20;29.30;;;;;;;15.58;72.16;99301.84;115331;1207;22293;-63
2021/09/13 05:11:55;;;;;;;54.10;26.90;;;;;;;15.68;71.59;99300.93;115167;1204;138201;-63
2021/09/13 05:14:24;;;;;;;47.40;26.30;;;;;;;15.78;71.42;99300.55;115267;1210;22320;-63
2021/09/13 05:16:52;;;;;;;45.80;25.10;;;;;;;15.96;71.09;99299.58;115148;1204;138183;-64
2021/09/13 05:19:22;;;;;;;67.20;27.40;;;;;;;16.11;70.39;99298.23;115161;1207;22374;-64
2021/09/13 05:21:50;;;;;;;49.40;26.30;;;;;;;16.24;69.85;99299.73;115289;1215;22391;-64
2021/09/13 05:24:19;;;;;;;54.60;27.70;;;;;;;16.34;69.51;99301.91;115136;1209;138130;-64
2021/09/13 05:26:51;;;;;;;57.70;25.60;;;;;;;16.42;69.57;99297.60;115238;1208;22339;-64
2021/09/13 05:29:20;;;;;;;51.40;26.70;;;;;;;16.49;69.22;99297.73;115079;1206;138755;-64
2021/09/13 05:31:48;;;;;;;69.20;26.80;;;;;;;16.57;69.15;99297.20;115224;1209;23338;-64
2021/09/13 05:34:17;;;;;;;69.80;30.00;;;;;;;16.65;68.63;99293.02;115292;1214;22581;-64
2021/09/13 05:36:45;;;;;;;50.50;25.80;;;;;;;16.73;68.40;99290.34;115148;1203;137609;-64
2021/09/13 05:39:13;;;;;;;53.30;25.30;;;;;;;16.81;68.21;99291.85;115189;1210;22272;-64
2021/09/13 05:41:48;;;;;;;54.50;26.20;;;;;;;16.89;68.04;99286.48;114909;1207;138549;-64
2021/09/13 05:44:18;;;;;;;59.00;25.00;;;;;;;16.96;67.96;99290.29;114982;1210;22343;-64
2021/09/13 05:46:48;;;;;;;51.60;24.80;;;;;;;17.04;67.84;99288.36;114896;1207;137324;-65
2021/09/13 05:49:17;;;;;;;53.40;27.90;;;;;;;17.12;67.92;99288.38;115034;1215;22430;-64
2021/09/13 05:51:50;;;;;;;52.80;25.60;;;;;;;17.22;67.92;99291.30;115014;1212;22919;-64
2021/09/13 05:54:27;;;;;;;50.80;25.90;;;;;;;17.32;67.66;99290.47;114880;1209;138822;-65
2021/09/13 05:56:55;;;;;;;54.80;23.90;;;;;;;17.42;67.37;99285.94;115015;1212;22342;-64
2021/09/13 05:59:24;;;;;;;47.50;24.70;;;;;;;17.53;66.73;99286.66;114884;1206;138832;-64
2021/09/13 06:01:59;;;;;;;44.10;23.90;;;;;;;17.63;66.51;99288.33;114967;1214;22376;-64
2021/09/13 06:04:30;;;;;;;40.30;22.10;;;;;;;17.73;66.40;99282.66;115000;1210;22251;-65
2021/09/13 06:07:19;;;;;;;37.90;22.90;;;;;;;17.84;65.59;99286.75;114920;1217;22336;-66
2021/09/13 06:09:50;;;;;;;44.40;24.50;;;;;;;17.93;65.05;99283.23;114958;1212;22395;-65
2021/09/13 06:12:18;;;;;;;49.50;28.50;;;;;;;18.01;65.21;99282.83;115018;1206;137409;-64
2021/09/13 06:15:00;;;;;;;51.60;31.50;;;;;;;18.11;65.18;99286.17;115279;1207;22291;-64
2021/09/13 06:17:55;;;;;;;56.50;32.00;;;;;;;18.21;65.51;99287.73;115136;1204;137937;-66
2021/09/13 06:20:25;;;;;;;51.20;29.70;;;;;;;18.29;64.99;99285.27;115296;1209;22378;-66
2021/09/13 06:22:59;;;;;;;49.10;26.10;;;;;;;18.38;64.36;99283.71;115160;1205;138318;-66
2021/09/13 06:25:32;;;;;;;55.50;25.20;;;;;;;18.46;63.97;99285.60;115226;1208;23019;-66
2021/09/13 06:28:00;;;;;;;42.00;22.10;;;;;;;18.53;63.97;99288.61;115250;1208;22359;-66
2021/09/13 06:30:43;;;;;;;48.80;20.20;;;;;;;18.59;63.74;99286.77;115018;1205;138212;-66
2021/09/13 06:33:12;;;;;;;54.60;19.40;;;;;;;18.65;63.55;99287.32;115270;1208;23296;-66
2021/09/13 06:35:40;;;;;;;33.60;17.00;;;;;;;18.72;63.08;99290.58;115131;1204;139146;-66
2021/09/13 06:38:12;;;;;;;34.30;14.80;;;;;;;18.77;62.91;99292.48;115278;1208;22417;-66
2021/09/13 06:40:40;;;;;;;41.60;13.70;;;;;;;18.83;62.55;99289.48;115361;1207;22401;-67
2021/09/13 06:43:15;;;;;;;23.70;13.50;;;;;;;18.90;62.05;99290.85;115117;1210;137353;-67
2021/09/13 06:45:57;;;;;;;21.30;12.60;;;;;;;18.97;61.38;99287.17;115296;1208;22151;-66
2021/09/13 06:48:27;;;;;;;42.90;13.40;;;;;;;19.03;61.09;99287.33;115096;1205;138448;-65
2021/09/13 06:50:55;;;;;;;39.30;12.60;;;;;;;19.10;60.85;99287.67;115191;1208;22400;-64
2021/09/13 06:53:25;;;;;;;17.30;11.00;;;;;;;19.18;60.62;99289.45;115171;1204;138546;-64
2021/09/13 06:55:54;;;;;;;19.20;11.30;;;;;;;19.26;60.10;99289.39;115179;1208;22390;-65
2021/09/13 06:58:22;;;;;;;24.00;12.10;;;;;;;19.32;59.90;99285.27;115256;1215;22973;-65
2021/09/13 07:00:52;;;;;;;21.80;11.50;;;;;;;19.43;59.99;99291.38;115156;1204;137312;-65
2021/09/13 07:03:20;;;;;;;19.50;11.30;;;;;;;19.52;59.74;99286.77;115255;1211;22366;-65
2021/09/13 07:05:50;;;;;;;42.60;12.30;;;;;;;19.60;59.96;99286.85;115190;1204;137849;-65
2021/09/13 07:08:18;;;;;;;22.60;11.50;;;;;;;19.69;59.41;99284.42;115216;1208;22437;-65
2021/09/13 07:10:47;;;;;;;20.90;11.00;;;;;;;19.77;59.32;99284.55;115244;1208;22332;-65
2021/09/13 07:13:16;;;;;;;31.30;12.60;;;;;;;19.83;59.30;99280.02;115250;1204;137078;-65
2021/09/13 07:15:45;;;;;;;26.70;11.80;;;;;;;19.92;59.27;99283.02;115223;1209;22237;-59
2021/09/13 07:18:14;;;;;;;38.80;13.10;;;;;;;20.00;58.77;99285.48;115188;1205;137799;-59
2021/09/13 07:20:42;;;;;;;21.40;12.40;;;;;;;20.08;58.75;99284.58;115238;1208;22200;-59
2021/09/13 07:23:10;;;;;;;28.40;11.30;;;;;;;20.16;58.84;99284.06;115117;1205;138683;-60
2021/09/13 07:25:38;;;;;;;18.10;11.90;;;;;;;20.24;58.17;99284.17;115317;1208;22220;-59
2021/09/13 07:28:06;;;;;;;26.90;13.20;;;;;;;20.32;57.80;99284.44;115286;1208;22790;-59
2021/09/13 07:30:35;;;;;;;23.30;12.30;;;;;;;20.39;57.98;99282.88;115142;1214;137352;-59
2021/09/13 07:33:03;;;;;;;23.80;12.50;;;;;;;20.46;57.58;99286.45;115311;1208;22310;-59
2021/09/13 07:35:31;;;;;;;22.70;12.60;;;;;;;20.54;57.64;99288.03;115128;1204;137352;-59
2021/09/13 07:37:59;;;;;;;21.20;13.00;;;;;;;20.60;57.71;99286.10;115316;1209;22351;-59
2021/09/13 07:40:27;;;;;;;22.90;14.00;;;;;;;20.65;57.24;99291.70;115347;1208;22434;-58
2021/09/13 07:42:55;;;;;;;34.70;12.00;;;;;;;20.70;56.98;99294.43;115203;1205;137131;-59
2021/09/13 07:45:24;;;;;;;26.60;12.70;;;;;;;20.75;56.76;99293.41;115329;1208;22274;-64
2021/09/13 07:47:52;;;;;;;24.70;12.60;;;;;;;20.81;57.14;99297.23;115167;1205;137404;-64
2021/09/13 07:50:21;;;;;;;27.00;13.10;;;;;;;20.88;57.07;99295.35;115325;1208;22250;-64
2021/09/13 07:52:49;;;;;;;20.50;11.80;;;;;;;20.95;56.87;99296.91;115316;1208;22299;-64
2021/09/13 07:55:17;;;;;;;26.80;10.80;;;;;;;21.02;56.45;99294.91;115203;1205;138343;-64
2021/09/13 07:57:45;;;;;;;17.80;10.30;;;;;;;21.08;55.96;99293.98;115342;1208;22243;-64
2021/09/13 08:00:21;;;;;;;23.00;11.10;;;;;;;21.14;55.34;99296.86;115222;1204;137343;-64
2021/09/13 08:02:51;;;;;;;21.20;10.10;;;;;;;21.19;55.61;99291.06;115241;1208;22395;-64
2021/09/13 08:05:20;;;;;;;37.80;11.70;;;;;;;21.26;55.54;99294.68;115223;1208;137593;-66
2021/09/13 08:07:48;;;;;;;22.10;11.10;;;;;;;21.32;55.13;99294.14;115279;1208;22336;-66
2021/09/13 08:10:17;;;;;;;21.80;11.80;;;;;;;21.38;54.02;99290.52;115333;1208;22808;-65
2021/09/13 08:12:46;;;;;;;16.80;12.10;;;;;;;21.43;53.42;99290.93;115161;1205;137753;-66
2021/09/13 08:15:16;;;;;;;15.30;10.10;;;;;;;21.47;52.91;99284.91;115315;1211;22462;-67
2021/09/13 08:17:45;;;;;;;18.20;10.20;;;;;;;21.53;52.78;99285.05;115273;1205;138370;-66
2021/09/13 08:20:15;;;;;;;19.60;10.10;;;;;;;21.57;52.25;99287.59;115316;1208;23274;-65
2021/09/13 08:22:47;;;;;;;13.30;10.40;;;;;;;21.61;52.00;99282.91;115322;1208;22319;-66
2021/09/13 08:25:16;;;;;;;18.90;9.50;;;;;;;21.65;53.00;99285.73;115110;1207;138126;-66
2021/09/13 08:28:12;;;;;;;17.40;10.30;;;;;;;21.71;53.93;99292.86;115186;1208;23076;-67
2021/09/13 08:30:42;;;;;;;21.70;10.60;;;;;;;21.75;53.15;99286.48;115198;1205;137389;-66
2021/09/13 08:33:10;;;;;;;18.10;10.90;;;;;;;21.80;52.15;99283.78;115348;1214;22426;-66
2021/09/13 08:35:38;;;;;;;19.40;10.80;;;;;;;21.83;52.36;99279.16;115163;1205;137555;-66
2021/09/13 08:38:07;;;;;;;19.80;9.50;;;;;;;21.87;52.59;99279.46;115300;1208;22317;-66
2021/09/13 08:40:35;;;;;;;13.50;9.10;;;;;;;21.92;52.26;99279.58;115228;1214;22443;-66
2021/09/13 08:43:03;;;;;;;19.10;10.10;;;;;;;21.96;51.72;99277.88;115169;1205;137317;-66
2021/09/13 08:45:40;;;;;;;27.60;10.40;;;;;;;22.00;50.75;99276.66;114623;1208;24056;-64
2021/09/13 08:53:20;;;;;;;17.80;8.80;;;;;;;22.15;52.29;99276.21;115019;1205;137327;-64
2021/09/13 08:55:51;;;;;;;13.60;9.50;;;;;;;22.20;51.95;99275.58;115234;1208;22296;-64
2021/09/13 08:58:22;;;;;;;14.20;9.50;;;;;;;22.26;51.44;99276.83;115334;1208;22912;-64
2021/09/13 09:00:51;;;;;;;14.30;9.40;;;;;;;22.31;50.78;99275.80;115188;1205;137319;-64
2021/09/13 09:03:19;;;;;;;14.60;9.00;;;;;;;22.37;49.40;99273.00;115281;1208;22233;-64
2021/09/13 09:05:52;;;;;;;14.10;9.10;;;;;;;22.40;49.02;99275.65;115180;1205;138095;-64
2021/09/13 09:08:28;;;;;;;20.90;14.70;;;;;;;22.44;49.77;99274.17;115211;1208;23101;-64
2021/09/13 09:10:58;;;;;;;16.40;11.10;;;;;;;22.49;49.69;99271.00;115270;1215;23126;-64
2021/09/13 09:13:47;;;;;;;17.60;10.30;;;;;;;22.52;49.92;99275.70;115185;1206;137152;-64
2021/09/13 09:16:15;;;;;;;19.10;10.60;;;;;;;22.56;50.23;99272.52;115201;1208;22376;-65
2021/09/13 09:18:44;;;;;;;14.30;9.50;;;;;;;22.62;49.98;99271.11;115082;1206;137375;-65
2021/09/13 09:21:33;;;;;;;15.70;9.50;;;;;;;22.66;49.13;99271.65;115276;1208;22266;-65
2021/09/13 09:24:04;;;;;;;13.20;9.20;;;;;;;22.69;49.32;99269.87;115168;1205;137619;-65
2021/09/13 09:26:32;;;;;;;13.50;9.90;;;;;;;22.72;48.11;99267.66;115373;1215;22291;-65
2021/09/13 09:29:01;;;;;;;15.00;8.40;;;;;;;22.72;47.18;99263.95;115319;1212;23055;-65
2021/09/13 09:31:44;;;;;;;15.00;8.90;;;;;;;22.74;47.09;99264.09;115173;1205;137960;-65
2021/09/13 09:34:17;;;;;;;18.70;8.90;;;;;;;22.78;47.04;99259.48;115308;1212;22310;-65
2021/09/13 09:36:58;;;;;;;15.20;11.10;;;;;;;22.81;47.28;99257.44;115175;1205;137463;-65
2021/09/13 09:39:29;;;;;;;13.30;9.90;;;;;;;22.85;48.04;99259.55;115340;1208;22323;-65
2021/09/13 09:41:58;;;;;;;16.10;9.20;;;;;;;22.88;47.65;99261.02;115225;1205;137340;-64
2021/09/13 09:44:30;;;;;;;12.10;8.30;;;;;;;22.91;46.50;99259.22;115251;1208;22231;-65
2021/09/13 09:47:06;;;;;;;11.80;8.50;;;;;;;22.94;45.52;99253.91;115362;1208;22462;-65
2021/09/13 09:49:45;;;;;;;13.90;9.00;;;;;;;22.96;46.00;99251.98;115189;1204;137836;-65
2021/09/13 09:52:46;;;;;;;17.50;8.90;;;;;;;22.98;46.63;99250.77;115265;1215;22342;-65
2021/09/13 09:55:19;;;;;;;13.80;8.70;;;;;;;23.02;46.08;99249.40;114885;1208;137094;-65
2021/09/13 09:58:04;;;;;;;14.20;9.50;;;;;;;23.03;46.59;99248.96;114953;1218;22323;-65
2021/09/13 10:00:34;;;;;;;24.80;11.40;;;;;;;23.06;46.89;99247.33;114798;1211;137400;-65
2021/09/13 10:03:02;;;;;;;13.90;9.80;;;;;;;23.10;46.88;99246.80;114908;1211;22448;-65
2021/09/13 10:05:32;;;;;;;15.30;10.40;;;;;;;23.12;46.90;99242.66;114897;1208;138361;-65
2021/09/13 10:08:00;;;;;;;17.50;11.50;;;;;;;23.16;47.51;99242.11;114954;1218;22326;-65
2021/09/13 10:10:29;;;;;;;16.70;10.40;;;;;;;23.20;47.34;99240.47;115038;1216;23176;-65
2021/09/13 10:12:59;;;;;;;25.20;10.60;;;;;;;23.20;46.82;99239.30;114833;1208;137512;-67
2021/09/13 10:15:27;;;;;;;15.30;9.90;;;;;;;23.23;47.37;99241.89;114445;1218;22500;-60
2021/09/13 10:18:00;;;;;;;22.30;10.30;;;;;;;23.25;47.09;99240.20;114812;1208;137172;-59
2021/09/13 10:20:28;;;;;;;28.50;11.30;;;;;;;23.26;47.39;99244.08;114936;1211;23112;-59
2021/09/13 10:22:56;;;;;;;43.40;22.80;;;;;;;23.29;47.76;99234.08;115006;1211;23290;-60
2021/09/13 10:25:31;;;;;;;21.00;13.90;;;;;;;23.33;47.85;99233.23;114846;1208;137730;-60
2021/09/13 10:28:04;;;;;;;17.30;12.40;;;;;;;23.36;47.92;99231.04;114930;1212;24543;-60
2021/09/13 10:30:48;;;;;;;17.80;12.10;;;;;;;23.40;47.44;99228.21;114926;1208;137365;-60
2021/09/13 10:33:21;;;;;;;18.30;12.30;;;;;;;23.43;47.86;99223.08;115315;1208;22332;-60
2021/09/13 10:35:56;;;;;;;16.70;12.20;;;;;;;23.46;48.26;99222.61;115162;1205;138082;-59
2021/09/13 10:38:44;;;;;;;25.90;13.10;;;;;;;23.49;48.15;99223.83;115376;1212;22721;-59
2021/09/13 10:41:51;;;;;;;19.60;12.20;;;;;;;23.53;47.67;99223.02;115285;1208;22337;-60
2021/09/13 10:44:29;;;;;;;17.30;10.90;;;;;;;23.58;47.96;99224.05;115318;1208;22819;-59
2021/09/13 10:46:59;;;;;;;17.60;10.60;;;;;;;23.61;47.23;99220.65;115328;1208;22283;-60
2021/09/13 10:49:27;;;;;;;14.40;11.40;;;;;;;23.64;46.69;99215.79;115189;1204;139847;-60
2021/09/13 10:52:27;;;;;;;24.10;10.10;;;;;;;23.66;45.96;99209.97;115327;1207;23088;-60
2021/09/13 10:55:13;;;;;;;22.20;10.40;;;;;;;23.65;45.70;99208.52;115182;1205;138046;-60
2021/09/13 10:57:55;;;;;;;15.30;10.30;;;;;;;23.65;45.59;99210.20;115290;1212;23109;-64
2021/09/13 11:00:38;;;;;;;12.70;9.90;;;;;;;23.66;45.04;99204.95;115174;1209;138550;-64
2021/09/13 11:03:23;;;;;;;12.60;9.60;;;;;;;23.68;45.70;99200.41;115309;1208;22359;-64
2021/09/13 11:06:05;;;;;;;25.30;15.20;;;;;;;23.71;45.07;99198.36;115140;1204;137919;-64
2021/09/13 11:08:42;;;;;;;16.80;11.10;;;;;;;23.75;45.13;99202.85;115313;1208;22268;-64
2021/09/13 11:11:18;;;;;;;16.10;9.60;;;;;;;23.79;45.42;99198.92;115310;1208;22324;-65
2021/09/13 11:13:54;;;;;;;16.60;10.80;;;;;;;23.83;45.54;99191.38;115187;1208;138732;-65
2021/09/13 11:16:22;;;;;;;17.40;9.10;;;;;;;23.84;45.23;99189.27;115216;1208;22375;-65
2021/09/13 11:18:53;;;;;;;18.30;10.70;;;;;;;23.85;45.63;99190.89;115152;1205;139656;-65
2021/09/13 11:21:34;;;;;;;14.50;9.90;;;;;;;23.86;45.52;99190.59;115275;1208;22402;-65
2021/09/13 11:24:08;;;;;;;14.80;9.20;;;;;;;23.86;45.13;99187.73;115210;1205;138006;-65
2021/09/13 11:26:58;;;;;;;14.80;10.00;;;;;;;23.87;44.60;99184.98;115318;1208;22153;-65
2021/09/13 11:29:31;;;;;;;24.10;10.20;;;;;;;23.88;44.69;99182.79;115262;1208;23360;-65
2021/09/13 11:32:04;;;;;;;14.50;9.60;;;;;;;23.90;44.91;99177.03;115212;1205;137250;-65
2021/09/13 11:34:41;;;;;;;12.70;8.70;;;;;;;23.91;44.63;99171.82;115365;1208;23057;-65
2021/09/13 11:37:35;;;;;;;19.00;10.30;;;;;;;23.91;44.54;99175.57;115220;1205;137401;-66
2021/09/13 11:40:24;;;;;;;16.60;9.40;;;;;;;23.93;44.05;99172.52;115307;1208;22401;-65
2021/09/13 11:42:54;;;;;;;15.90;11.30;;;;;;;23.99;43.79;99170.20;115266;1208;137757;-65
2021/09/13 11:45:22;;;;;;;13.40;10.10;;;;;;;24.04;43.78;99166.62;115310;1208;22395;-65